Ship Status Report: callsign SLRE

sailwx.info

Track history (hours):
 
Tides and Currents Weather Stations Pressure Air Temp Water Temp Dewpoint Dewpoint Depression Visibility Wind Speed Wind Dir Waves Ship Positions

Callsign SLRE (name unknown)

Last reported at 2017-Jul-25 00:24 UTC. Time now 2017-Jul-25 04:44 UTC.
Position N 56°47' E 012°02'.

AWS

Date/timePositionNaut miles runAvg speedWind from/ knotsBaromVisibWave heightAir tempDewpointWater temp
2017-Jul-25 00:24N 56°47' E 012°02'  
2017-Jul-19 23:30N 56°49' E 011°60'1 2.1
2017-Jul-19 22:59N 56°48' E 012°01'1 2.6
2017-Jul-19 22:30N 56°47' E 012°02'1 2.5
2017-Jul-19 21:56N 56°45' E 012°02'1 2.5
2017-Jul-19 21:31N 56°45' E 012°01'1 1.8
2017-Jul-19 21:00N 56°45' E 011°60'1 2.5
2017-Jul-19 20:29N 56°47' E 012°00'1 2.6
2017-Jul-19 20:00N 56°48' E 012°00'1 2.6
2017-Jul-19 19:30N 56°49' E 011°60'  
Track history (hours):
 
Tides and Currents Weather Stations Pressure Air Temp Water Temp Dewpoint Dewpoint Depression Visibility Wind Speed Wind Dir Waves Ship Positions

Callsign SLRE (name unknown)

Last reported at 2017-Jul-25 00:24 UTC. Time now 2017-Jul-25 04:44 UTC.
Position N 56°47' E 012°02'.

AWS

Date/timePositionNaut miles runAvg speedWind from/ knotsBaromVisibWave heightAir tempDewpointWater temp
2017-Jul-25 00:24N 56°47' E 012°02'  
2017-Jul-19 23:30N 56°49' E 011°60'1 2.1
2017-Jul-19 22:59N 56°48' E 012°01'1 2.6
2017-Jul-19 22:30N 56°47' E 012°02'1 2.5
2017-Jul-19 21:56N 56°45' E 012°02'1 2.5
2017-Jul-19 21:31N 56°45' E 012°01'1 1.8
2017-Jul-19 21:00N 56°45' E 011°60'1 2.5
2017-Jul-19 20:29N 56°47' E 012°00'1 2.6
2017-Jul-19 20:00N 56°48' E 012°00'1 2.6
2017-Jul-19 19:30N 56°49' E 011°60'  

Dump ship's entire track history